Time;durP1;ratioP1;P1;durP2;ratioP2;P2;SDS_P1;SDS_P2;PMS_P1;PMS_P2;Temp;Humidity;BMP_temperature;BMP_pressure;BME280_temperature;BME280_humidity;BME280_pressure;Samples;Min_cycle;Max_cycle;Signal;HPM_P1;HPM_P2
2022/09/14 00:01:31;;;;;;;;;2.00;2.00;;;;;19.68;62.75;99086.38;5035709;28;8909;-59
2022/09/14 00:03:59;;;;;;;;;0.40;0.00;;;;;19.65;62.75;99084.91;5035712;28;8836;-59
2022/09/14 00:06:27;;;;;;;;;1.60;1.60;;;;;19.63;62.76;99068.06;5035565;28;8817;-58
2022/09/14 00:08:54;;;;;;;;;3.60;2.00;;;;;19.58;62.84;99062.41;5035579;28;8905;-60
2022/09/14 00:11:22;;;;;;;;;1.00;1.00;;;;;19.53;62.97;99053.25;5033587;28;8856;-59
2022/09/14 00:13:50;;;;;;;;;1.00;1.00;;;;;19.49;63.28;99052.81;5033889;28;8827;-59
2022/09/14 00:16:17;;;;;;;;;1.00;1.00;;;;;19.43;63.49;99056.31;5034397;28;8920;-59
2022/09/14 00:18:45;;;;;;;;;1.40;1.40;;;;;19.39;63.22;99055.06;5034502;28;8963;-60
2022/09/14 00:21:13;;;;;;;;;1.20;1.20;;;;;19.36;63.19;99055.44;5034322;28;8849;-60
2022/09/14 00:23:41;;;;;;;;;1.40;1.40;;;;;19.31;63.36;99052.53;5033979;28;8836;-59
2022/09/14 00:26:08;;;;;;;;;1.00;1.00;;;;;19.29;63.10;99056.47;5032903;28;8887;-60
2022/09/14 00:28:36;;;;;;;;;1.40;1.40;;;;;19.27;62.99;99055.84;5032917;28;8825;-59
2022/09/14 00:31:04;;;;;;;;;1.00;1.00;;;;;19.28;62.84;99055.59;5033860;28;8837;-59
2022/09/14 00:33:32;;;;;;;;;2.40;2.00;;;;;19.28;63.38;99058.31;5034221;28;8848;-60
2022/09/14 00:36:00;;;;;;;;;1.00;1.00;;;;;19.27;63.31;99045.03;5033942;28;8859;-59
2022/09/14 00:38:28;;;;;;;;;1.00;1.00;;;;;19.23;63.38;99036.50;5034471;28;8825;-59
2022/09/14 00:40:55;;;;;;;;;1.40;1.00;;;;;19.19;63.04;99042.47;5033714;28;8840;-59
2022/09/14 00:43:23;;;;;;;;;1.00;1.00;;;;;19.16;63.04;99042.84;5033872;28;8841;-59
2022/09/14 00:45:50;;;;;;;;;2.20;1.00;;;;;19.15;63.26;99042.03;5034100;28;8913;-59
2022/09/14 00:48:18;;;;;;;;;1.00;1.00;;;;;19.10;63.18;99028.28;5033236;28;8824;-59
2022/09/14 00:50:46;;;;;;;;;1.00;1.00;;;;;19.08;63.89;99034.91;5033897;28;8913;-59
2022/09/14 00:53:13;;;;;;;;;1.00;1.00;;;;;19.03;63.21;99026.56;5033591;28;9505;-59
2022/09/14 00:55:41;;;;;;;;;2.20;2.20;;;;;19.03;63.30;99021.19;5033539;28;8913;-59
2022/09/14 00:58:09;;;;;;;;;2.20;2.20;;;;;19.01;63.90;99018.66;5032430;28;8829;-59
2022/09/14 01:00:36;;;;;;;;;1.00;1.00;;;;;19.01;63.88;99023.22;5032634;28;9595;-60
2022/09/14 01:03:04;;;;;;;;;1.60;1.00;;;;;19.01;63.41;99018.66;5033036;28;8959;-59
2022/09/14 01:05:32;;;;;;;;;1.00;1.00;;;;;19.02;63.42;99014.09;5033622;28;8832;-59
2022/09/14 01:07:59;;;;;;;;;1.00;1.00;;;;;19.01;63.76;99012.44;5033588;28;8809;-59
2022/09/14 01:10:27;;;;;;;;;1.00;1.00;;;;;18.99;63.87;99018.03;5032748;28;8849;-60
2022/09/14 01:12:55;;;;;;;;;1.00;1.00;;;;;19.00;63.52;99010.75;5033853;28;9606;-59
2022/09/14 01:15:23;;;;;;;;;2.20;2.20;;;;;18.99;63.45;99009.94;5033567;28;9521;-59
2022/09/14 01:17:51;;;;;;;;;1.00;1.00;;;;;19.01;63.14;99007.03;5033463;28;8852;-59
2022/09/14 01:20:18;;;;;;;;;1.80;1.80;;;;;19.00;63.18;99005.38;5033552;28;8841;-59
2022/09/14 01:22:46;;;;;;;;;1.00;1.00;;;;;18.98;63.43;99002.03;5032888;28;8907;-59
2022/09/14 01:25:13;;;;;;;;;1.20;1.20;;;;;18.98;63.53;99012.84;5032806;28;8840;-59
2022/09/14 01:27:42;;;;;;;;;1.00;1.00;;;;;18.95;63.61;99019.44;5031865;28;8837;-60
2022/09/14 01:30:10;;;;;;;;;3.60;2.20;;;;;18.95;63.42;99002.41;5031062;28;8856;-59
2022/09/14 01:32:38;;;;;;;;;2.80;2.20;;;;;18.94;63.76;99001.59;5031096;28;8893;-59
2022/09/14 01:35:05;;;;;;;;;1.80;1.40;;;;;18.92;63.29;98998.28;5031409;28;8901;-59
2022/09/14 01:37:33;;;;;;;;;3.00;2.00;;;;;18.92;63.39;99000.13;5032448;28;8821;-59
2022/09/14 01:40:00;;;;;;;;;1.00;1.00;;;;;18.90;63.71;99008.41;5032067;28;9074;-59
2022/09/14 01:42:28;;;;;;;;;1.60;1.60;;;;;18.87;63.48;99000.72;5032457;28;8968;-59
2022/09/14 01:44:56;;;;;;;;;1.00;1.00;;;;;18.84;63.57;98995.72;5032353;28;8841;-60
2022/09/14 01:47:25;;;;;;;;;2.20;2.00;;;;;18.80;63.36;98989.03;5032805;28;9186;-59
2022/09/14 01:49:53;;;;;;;;;1.20;1.20;;;;;18.77;64.13;98992.16;5032682;28;8913;-59
2022/09/14 01:52:21;;;;;;;;;1.00;1.00;;;;;18.73;64.20;98990.03;5033007;28;8833;-59
2022/09/14 01:54:48;;;;;;;;;1.00;1.00;;;;;18.69;63.91;98986.06;5032822;28;8897;-59
2022/09/14 01:57:16;;;;;;;;;4.00;2.80;;;;;18.65;64.24;98976.69;5032695;28;8832;-59
2022/09/14 01:59:44;;;;;;;;;3.00;3.00;;;;;18.61;63.98;98978.94;5032605;28;8878;-59
2022/09/14 02:02:11;;;;;;;;;1.60;1.60;;;;;18.57;63.73;98969.59;5032439;28;8897;-59
2022/09/14 02:04:39;;;;;;;;;1.00;1.00;;;;;18.54;63.93;98971.84;5032659;28;8948;-58
2022/09/14 02:07:07;;;;;;;;;1.00;1.00;;;;;18.48;64.33;98973.47;5032565;28;8832;-59
2022/09/14 02:09:35;;;;;;;;;1.00;1.00;;;;;18.45;64.18;98970.31;5032799;28;8813;-60
2022/09/14 02:12:02;;;;;;;;;1.00;0.40;;;;;18.42;64.44;98978.78;5032570;28;8865;-59
2022/09/14 02:14:30;;;;;;;;;2.20;2.20;;;;;18.43;64.18;98980.47;5031689;28;8901;-59
2022/09/14 02:16:58;;;;;;;;;1.00;1.00;;;;;18.41;64.57;98983.38;5033157;28;8841;-59
2022/09/14 02:19:25;;;;;;;;;1.00;1.00;;;;;18.41;64.01;98977.13;5032679;28;8895;-59
2022/09/14 02:21:53;;;;;;;;;3.00;3.00;;;;;18.41;64.29;98974.44;5032065;28;8841;-59
2022/09/14 02:24:21;;;;;;;;;0.40;0.40;;;;;18.42;63.90;98966.16;5032538;28;8828;-59
2022/09/14 02:26:49;;;;;;;;;1.00;0.80;;;;;18.43;64.06;98962.41;5032511;28;9297;-59
2022/09/14 02:29:16;;;;;;;;;2.60;1.00;;;;;18.45;64.01;98967.63;5032805;28;8980;-59
2022/09/14 02:31:44;;;;;;;;;0.80;0.80;;;;;18.44;63.77;98966.78;5031858;28;8825;-59
2022/09/14 02:34:12;;;;;;;;;2.20;1.00;;;;;18.46;64.17;98953.13;5032496;28;8833;-60
2022/09/14 02:36:39;;;;;;;;;0.00;0.00;;;;;18.46;63.77;98956.66;5032458;28;8925;-59
2022/09/14 02:39:07;;;;;;;;;0.00;0.00;;;;;18.46;63.63;98948.56;5032379;28;8844;-60
2022/09/14 02:41:36;;;;;;;;;0.80;0.80;;;;;18.47;64.28;98958.31;5032295;28;9222;-60
2022/09/14 02:44:03;;;;;;;;;1.00;1.00;;;;;18.46;64.02;98948.56;5032161;28;8924;-59
2022/09/14 02:46:31;;;;;;;;;0.60;0.60;;;;;18.47;63.47;98950.22;5032037;28;8825;-59
2022/09/14 02:48:58;;;;;;;;;2.60;1.80;;;;;18.48;63.98;98951.88;5032380;28;8951;-61
2022/09/14 02:51:26;;;;;;;;;1.00;0.60;;;;;18.49;63.65;98941.91;5031832;28;8829;-59
2022/09/14 02:53:54;;;;;;;;;1.80;0.60;;;;;18.49;63.09;98939.22;5032162;28;8836;-59
2022/09/14 02:56:22;;;;;;;;;1.40;1.40;;;;;18.49;63.45;98936.53;5032052;28;8824;-59
2022/09/14 02:58:49;;;;;;;;;1.00;1.00;;;;;18.45;63.57;98937.97;5032209;28;9583;-59
2022/09/14 03:01:17;;;;;;;;;2.40;2.40;;;;;18.41;63.89;98940.22;5032009;28;8837;-59
2022/09/14 03:03:44;;;;;;;;;1.00;1.00;;;;;18.38;63.64;98929.81;5031967;28;8929;-59
2022/09/14 03:06:13;;;;;;;;;1.00;1.00;;;;;18.31;63.84;98934.34;5032225;28;8921;-60
2022/09/14 03:08:40;;;;;;;;;1.00;1.00;;;;;18.25;63.72;98935.09;5031062;28;8863;-59
2022/09/14 03:11:08;;;;;;;;;0.00;0.00;;;;;18.21;63.87;98930.28;5030278;28;8975;-60
2022/09/14 03:13:35;;;;;;;;;1.00;0.00;;;;;18.14;64.39;98927.50;5030430;28;8912;-59
2022/09/14 03:16:03;;;;;;;;;0.20;0.20;;;;;18.11;64.16;98929.75;5031736;28;8813;-62
2022/09/14 03:18:31;;;;;;;;;1.80;1.80;;;;;18.05;64.37;98919.75;5032219;28;8852;-62
2022/09/14 03:20:59;;;;;;;;;1.00;1.00;;;;;18.00;65.04;98917.66;5031710;28;8828;-59
2022/09/14 03:23:26;;;;;;;;;1.00;1.00;;;;;17.95;64.67;98930.03;5031445;28;8825;-59
2022/09/14 03:25:54;;;;;;;;;1.00;1.00;;;;;17.90;64.75;98919.84;5032908;28;8840;-59
2022/09/14 03:28:23;;;;;;;;;1.40;1.40;;;;;17.84;65.31;98920.59;5034122;28;8972;-59
2022/09/14 03:30:51;;;;;;;;;0.00;0.00;;;;;17.79;65.38;98923.06;5034955;28;8829;-59
2022/09/14 03:33:19;;;;;;;;;1.00;0.80;;;;;17.72;65.23;98916.78;5034806;28;8825;-59
2022/09/14 03:35:46;;;;;;;;;1.00;1.00;;;;;17.69;65.69;98917.16;5034811;28;8825;-59
2022/09/14 03:38:14;;;;;;;;;4.40;2.20;;;;;17.62;65.31;98915.44;5034881;28;8821;-59
2022/09/14 03:40:42;;;;;;;;;0.00;0.00;;;;;17.58;65.60;98919.50;5035025;28;8864;-59
2022/09/14 03:43:11;;;;;;;;;1.00;1.00;;;;;17.51;66.02;98911.38;5034549;28;8837;-60
2022/09/14 03:45:38;;;;;;;;;1.40;1.40;;;;;17.46;65.80;98916.50;5034070;28;8909;-59
2022/09/14 03:48:06;;;;;;;;;3.80;3.00;;;;;17.41;65.94;98910.88;5034423;28;8820;-59
2022/09/14 03:50:34;;;;;;;;;1.00;1.00;;;;;17.38;65.96;98913.91;5034291;28;8852;-62
2022/09/14 03:53:03;;;;;;;;;1.40;1.00;;;;;17.36;66.49;98920.47;5034234;28;8840;-62
2022/09/14 03:55:31;;;;;;;;;1.00;0.40;;;;;17.34;66.11;98914.47;5034267;28;8905;-59
2022/09/14 03:57:59;;;;;;;;;1.00;1.00;;;;;17.33;66.65;98913.59;5034496;28;8901;-59
2022/09/14 04:00:26;;;;;;;;;3.00;1.40;;;;;17.30;65.89;98911.31;5034525;28;8840;-59
2022/09/14 04:02:54;;;;;;;;;3.00;2.80;;;;;17.27;66.04;98903.63;5034493;28;8833;-59
2022/09/14 04:05:22;;;;;;;;;0.20;0.20;;;;;17.24;66.41;98906.69;5034105;28;8851;-60
2022/09/14 04:07:49;;;;;;;;;1.00;1.00;;;;;17.25;66.38;98902.97;5034356;28;8897;-60
2022/09/14 04:10:17;;;;;;;;;1.00;1.00;;;;;17.24;66.87;98903.97;5033322;28;8833;-60
2022/09/14 04:12:45;;;;;;;;;1.00;1.00;;;;;17.24;66.57;98897.78;5032331;28;9521;-58
2022/09/14 04:15:12;;;;;;;;;1.00;1.00;;;;;17.23;66.13;98899.63;5033424;28;8821;-60
2022/09/14 04:17:40;;;;;;;;;1.00;1.00;;;;;17.24;66.51;98901.28;5035061;28;9572;-59
2022/09/14 04:20:08;;;;;;;;;3.60;3.00;;;;;17.23;66.58;98902.31;5035112;28;8848;-60
2022/09/14 04:22:36;;;;;;;;;2.60;1.00;;;;;17.24;66.20;98890.53;5035135;28;8916;-60
2022/09/14 04:25:03;;;;;;;;;2.20;1.00;;;;;17.22;66.25;98897.97;5034840;28;8833;-59
2022/09/14 04:27:31;;;;;;;;;1.00;1.00;;;;;17.24;66.37;98903.16;5035306;28;8817;-59
2022/09/14 04:29:59;;;;;;;;;1.00;1.00;;;;;17.22;66.42;98889.91;5034923;28;8873;-59
2022/09/14 04:32:27;;;;;;;;;1.00;1.00;;;;;17.21;66.57;98896.31;5034789;28;8886;-59
2022/09/14 04:35:00;;;;;;;;;1.00;1.00;;;;;17.17;66.46;98895.00;5034452;28;8817;-59
2022/09/14 04:37:28;;;;;;;;;1.00;1.00;;;;;17.12;66.67;98913.59;5033405;28;8828;-59
2022/09/14 04:39:55;;;;;;;;;2.20;2.20;;;;;17.09;67.23;98902.38;5034672;28;9501;-59
2022/09/14 04:42:23;;;;;;;;;3.00;2.60;;;;;17.03;67.08;98906.66;5034596;28;8853;-58
2022/09/14 04:44:51;;;;;;;;;0.40;0.40;;;;;17.01;67.05;98905.97;5034559;28;8832;-59
2022/09/14 04:47:18;;;;;;;;;3.00;3.00;;;;;16.98;66.83;98903.69;5034332;28;8833;-58
2022/09/14 04:49:46;;;;;;;;;1.00;1.00;;;;;16.98;67.07;98901.00;5034837;28;8836;-59
2022/09/14 04:52:14;;;;;;;;;3.00;3.00;;;;;16.96;67.08;98913.81;5034309;28;8809;-59
2022/09/14 04:54:42;;;;;;;;;1.00;1.00;;;;;16.94;67.07;98904.25;5034207;28;8840;-59
2022/09/14 04:57:10;;;;;;;;;3.60;3.60;;;;;16.89;67.27;98910.19;5034442;28;8836;-59
2022/09/14 04:59:38;;;;;;;;;3.00;3.00;;;;;16.87;67.76;98898.75;5034235;28;8821;-60
2022/09/14 05:02:06;;;;;;;;;3.40;2.60;;;;;16.85;67.56;98903.50;5033328;28;8929;-59
2022/09/14 05:04:33;;;;;;;;;0.40;0.40;;;;;16.84;67.99;98901.84;5033562;28;8871;-59
2022/09/14 05:07:01;;;;;;;;;1.00;1.00;;;;;16.83;68.08;98892.09;5033210;28;8813;-60
2022/09/14 05:09:29;;;;;;;;;3.00;1.80;;;;;16.81;68.40;98899.53;5033491;28;8913;-59
2022/09/14 05:11:57;;;;;;;;;3.00;1.80;;;;;16.79;67.96;98901.56;5033382;28;8825;-58
2022/09/14 05:14:24;;;;;;;;;2.60;2.60;;;;;16.75;68.52;98900.28;5032255;28;8841;-59
2022/09/14 05:16:52;;;;;;;;;1.00;1.00;;;;;16.71;68.65;98904.34;5032440;28;9498;-58
2022/09/14 05:19:20;;;;;;;;;1.80;1.80;;;;;16.67;68.71;98897.69;5033203;28;8893;-58
2022/09/14 05:21:47;;;;;;;;;2.60;2.20;;;;;16.64;68.46;98892.66;5033180;28;8825;-58
2022/09/14 05:24:15;;;;;;;;;0.00;0.00;;;;;16.62;68.17;98894.72;5032184;28;8840;-59
2022/09/14 05:26:43;;;;;;;;;4.00;4.00;;;;;16.63;68.72;98898.25;5032100;28;8925;-61
2022/09/14 05:29:10;;;;;;;;;3.20;3.20;;;;;16.61;68.55;98890.34;5032137;28;8845;-60
2022/09/14 05:31:38;;;;;;;;;3.60;3.60;;;;;16.62;68.64;98900.09;5032114;28;8917;-60
2022/09/14 05:34:06;;;;;;;;;4.00;3.00;;;;;16.62;68.63;98894.72;5032472;28;9552;-58
2022/09/14 05:36:33;;;;;;;;;3.00;3.00;;;;;16.63;68.43;98890.19;5032283;28;8816;-58
2022/09/14 05:39:01;;;;;;;;;1.40;1.00;;;;;16.63;68.49;98895.56;5032057;28;8901;-59
2022/09/14 05:41:29;;;;;;;;;4.00;3.20;;;;;16.63;68.42;98885.63;5032629;28;8921;-59
2022/09/14 05:43:56;;;;;;;;;3.00;3.00;;;;;16.63;68.35;98885.63;5032601;28;8898;-58
2022/09/14 05:46:24;;;;;;;;;2.60;2.60;;;;;16.62;68.56;98889.34;5031898;28;8828;-58
2022/09/14 05:48:52;;;;;;;;;0.00;0.00;;;;;16.59;68.96;98883.50;5032063;28;8840;-58
2022/09/14 05:51:20;;;;;;;;;2.60;1.00;;;;;16.56;69.21;98887.38;5030696;28;9542;-60
2022/09/14 05:53:47;;;;;;;;;3.00;3.00;;;;;16.55;68.94;98890.28;5030524;28;8832;-58
2022/09/14 05:56:15;;;;;;;;;1.00;1.00;;;;;16.52;69.25;98882.56;5030851;28;8825;-61
2022/09/14 05:58:43;;;;;;;;;3.40;3.00;;;;;16.49;69.25;98883.75;5030621;28;8832;-58
2022/09/14 06:01:11;;;;;;;;;3.00;3.00;;;;;16.49;68.99;98883.75;5030146;28;8840;-61
2022/09/14 06:03:38;;;;;;;;;4.00;3.80;;;;;16.53;69.17;98874.31;5030602;28;9518;-59
2022/09/14 06:06:06;;;;;;;;;0.00;0.00;;;;;16.55;68.87;98882.22;5030992;28;8833;-59
2022/09/14 06:08:34;;;;;;;;;0.60;0.00;;;;;16.56;68.85;98875.81;5031732;28;8833;-59
2022/09/14 06:11:02;;;;;;;;;3.60;3.00;;;;;16.56;69.15;98876.63;5031580;28;8864;-59
2022/09/14 06:13:29;;;;;;;;;4.00;1.80;;;;;16.57;69.20;98880.97;5031602;28;8841;-59
2022/09/14 06:15:58;;;;;;;;;1.00;1.00;;;;;16.56;68.98;98887.38;5030108;28;8841;-59
2022/09/14 06:18:25;;;;;;;;;2.20;2.20;;;;;16.51;69.56;98886.28;5030105;28;8841;-61
2022/09/14 06:20:53;;;;;;;;;2.80;2.60;;;;;16.49;69.63;98889.13;5029882;28;8829;-61
2022/09/14 06:23:21;;;;;;;;;3.00;2.60;;;;;16.47;69.49;98888.50;5028905;28;8856;-59
2022/09/14 06:25:48;;;;;;;;;2.20;2.20;;;;;16.47;69.67;98880.44;5027949;28;9212;-60
2022/09/14 06:28:16;;;;;;;;;1.40;1.00;;;;;16.47;69.35;98885.81;5027507;28;8874;-59
2022/09/14 06:30:44;;;;;;;;;3.00;1.00;;;;;16.46;69.03;98892.22;5027237;28;8897;-59
2022/09/14 06:33:11;;;;;;;;;1.00;1.00;;;;;16.44;69.59;98888.03;5027612;28;8913;-58
2022/09/14 06:35:40;;;;;;;;;1.00;1.00;;;;;16.42;69.44;98893.56;5026675;28;8829;-60
2022/09/14 06:38:08;;;;;;;;;1.80;1.80;;;;;16.42;69.70;98888.22;5027743;28;8901;-59
2022/09/14 06:40:36;;;;;;;;;3.00;3.00;;;;;16.42;69.79;98884.69;5027160;28;8865;-58
2022/09/14 06:43:03;;;;;;;;;3.00;1.80;;;;;16.40;69.53;98890.25;5028124;28;8836;-61
2022/09/14 06:45:32;;;;;;;;;3.00;3.00;;;;;16.38;69.44;98879.88;5028310;28;9533;-59
2022/09/14 06:48:00;;;;;;;;;3.20;1.40;;;;;16.38;69.65;98889.59;5029442;28;8833;-59
2022/09/14 06:50:28;;;;;;;;;2.60;2.60;;;;;16.39;69.91;98888.59;5030053;28;8829;-58
2022/09/14 06:52:55;;;;;;;;;1.80;1.80;;;;;16.39;69.67;98893.97;5030335;28;9551;-61
2022/09/14 06:55:23;;;;;;;;;5.20;3.40;;;;;16.39;69.52;98893.13;5031148;28;8913;-60
2022/09/14 06:57:51;;;;;;;;;3.80;3.40;;;;;16.38;69.78;98894.97;5030238;28;8849;-61
2022/09/14 07:00:19;;;;;;;;;3.20;1.80;;;;;16.38;69.92;98894.97;5030515;28;8870;-58
2022/09/14 07:02:46;;;;;;;;;3.00;3.00;;;;;16.39;69.58;98893.13;5031204;28;8832;-58
2022/09/14 07:05:19;;;;;;;;;4.00;3.00;;;;;16.40;69.80;98892.94;5030911;28;8857;-60
2022/09/14 07:07:47;;;;;;;;;3.00;1.00;;;;;16.41;70.13;98891.91;5030529;28;8935;-60
2022/09/14 07:10:15;;;;;;;;;2.60;2.60;;;;;16.44;69.84;98901.47;5028997;28;8825;-58
2022/09/14 07:12:43;;;;;;;;;4.00;3.20;;;;;16.42;70.00;98898.94;5027771;28;9522;-59
2022/09/14 07:15:11;;;;;;;;;4.00;3.00;;;;;16.41;70.11;98902.66;5027768;28;8848;-58
2022/09/14 07:17:38;;;;;;;;;9.00;6.20;;;;;16.42;70.04;98903.50;5026837;28;8879;-58
2022/09/14 07:20:06;;;;;;;;;3.80;3.40;;;;;16.44;70.22;98898.78;5028105;28;8833;-59
2022/09/14 07:22:34;;;;;;;;;3.60;3.60;;;;;16.44;69.91;98906.84;5026852;28;8835;-59
2022/09/14 07:25:02;;;;;;;;;6.40;6.20;;;;;16.41;69.84;98902.66;5027917;28;8874;-58
2022/09/14 07:27:30;;;;;;;;;4.00;4.00;;;;;16.42;70.05;98906.19;5027694;28;8856;-59
2022/09/14 07:29:58;;;;;;;;;3.00;3.00;;;;;16.42;69.73;98904.34;5028439;28;9561;-58
2022/09/14 07:32:25;;;;;;;;;2.20;2.20;;;;;16.42;69.95;98909.72;5027952;28;8837;-59
2022/09/14 07:34:53;;;;;;;;;1.00;1.00;;;;;16.42;70.29;98912.38;5027688;28;8833;-58
2022/09/14 07:37:21;;;;;;;;;3.00;3.00;;;;;16.38;69.93;98912.94;5027776;28;8896;-60
2022/09/14 07:39:49;;;;;;;;;1.00;1.00;;;;;16.33;70.01;98909.97;5027677;28;8861;-59
2022/09/14 07:42:17;;;;;;;;;1.00;1.00;;;;;16.29;70.33;98914.88;5028332;28;8905;-59
2022/09/14 07:44:44;;;;;;;;;1.00;1.00;;;;;16.27;70.41;98911.50;5027462;28;9556;-58
2022/09/14 07:47:12;;;;;;;;;3.60;3.00;;;;;16.22;70.74;98914.94;5026814;28;8844;-59
2022/09/14 07:49:40;;;;;;;;;3.20;3.00;;;;;16.17;70.24;98906.59;5027037;28;9490;-58
2022/09/14 07:52:10;;;;;;;;;3.40;3.00;;;;;16.15;70.34;98911.31;5026325;28;8849;-61
2022/09/14 07:54:38;;;;;;;;;3.00;3.00;;;;;16.15;71.30;98908.63;5026109;28;8825;-58
2022/09/14 07:57:05;;;;;;;;;2.20;2.20;;;;;16.18;70.79;98912.59;5027489;28;8833;-59
2022/09/14 07:59:33;;;;;;;;;3.00;3.00;;;;;16.22;70.56;98912.25;5027855;28;8829;-58
2022/09/14 08:02:03;;;;;;;;;4.20;3.60;;;;;16.27;70.78;98914.19;5027782;28;9534;-58
2022/09/14 08:04:31;;;;;;;;;3.80;2.60;;;;;16.28;70.16;98910.50;5028160;28;8821;-59
2022/09/14 08:06:59;;;;;;;;;3.00;3.00;;;;;16.28;70.43;98907.84;5028529;28;8888;-60
2022/09/14 08:09:27;;;;;;;;;1.40;1.40;;;;;16.29;70.72;98908.66;5028178;28;8836;-58
2022/09/14 08:11:56;;;;;;;;;3.00;3.00;;;;;16.31;70.20;98902.06;5026534;28;8857;-59
2022/09/14 08:14:24;;;;;;;;;1.00;1.00;;;;;16.34;69.80;98908.94;5028374;28;8852;-59
2022/09/14 08:16:51;;;;;;;;;2.20;1.40;;;;;16.38;70.40;98891.44;5028321;28;8829;-59
2022/09/14 08:19:19;;;;;;;;;3.80;3.60;;;;;16.39;69.79;98893.97;5027874;28;8880;-59
2022/09/14 08:21:47;;;;;;;;;2.60;2.60;;;;;16.42;69.95;98898.94;5028227;28;8848;-58
2022/09/14 08:24:15;;;;;;;;;1.00;1.00;;;;;16.46;70.39;98891.34;5028044;28;8832;-59
2022/09/14 08:26:43;;;;;;;;;3.40;3.00;;;;;16.47;70.43;98885.00;5028366;28;8849;-59
2022/09/14 08:29:11;;;;;;;;;3.20;3.20;;;;;16.46;70.20;98889.53;5030118;28;8847;-58
2022/09/14 08:31:39;;;;;;;;;1.80;1.80;;;;;16.46;70.42;98883.28;5028983;28;8837;-58
2022/09/14 08:34:06;;;;;;;;;4.00;4.00;;;;;16.49;70.42;98891.81;5028789;28;8829;-59
2022/09/14 08:36:35;;;;;;;;;3.00;3.00;;;;;16.54;70.37;98883.19;5030038;28;8829;-59
2022/09/14 08:39:03;;;;;;;;;3.00;3.00;;;;;16.55;69.74;98882.22;5030170;28;8878;-61
2022/09/14 08:41:31;;;;;;;;;3.60;3.00;;;;;16.56;70.06;98876.63;5029165;28;8937;-62
2022/09/14 08:43:58;;;;;;;;;1.00;1.00;;;;;16.54;70.00;98877.81;5029940;28;8837;-60
2022/09/14 08:46:26;;;;;;;;;3.00;3.00;;;;;16.53;69.96;98877.00;5029614;28;8837;-61
2022/09/14 08:48:54;;;;;;;;;1.80;1.00;;;;;16.52;69.77;98890.63;5028490;28;8829;-58
2022/09/14 08:51:22;;;;;;;;;3.40;3.00;;;;;16.50;70.44;98881.91;5029198;28;8883;-59
2022/09/14 08:53:50;;;;;;;;;3.00;2.60;;;;;16.49;70.37;98878.38;5029823;28;8869;-59
2022/09/14 08:56:17;;;;;;;;;3.00;1.80;;;;;16.47;70.48;98880.44;5029255;28;8856;-58
2022/09/14 08:58:45;;;;;;;;;1.00;1.00;;;;;16.44;70.61;98885.34;5029123;28;8836;-58
2022/09/14 09:01:15;;;;;;;;;3.60;3.40;;;;;16.42;70.52;98884.69;5028683;28;8833;-59
2022/09/14 09:03:43;;;;;;;;;3.00;3.00;;;;;16.42;70.78;98882.84;5028638;28;8896;-62
2022/09/14 09:06:11;;;;;;;;;3.00;3.00;;;;;16.44;70.30;98886.19;5028892;28;8841;-58
2022/09/14 09:08:42;;;;;;;;;4.00;3.20;;;;;16.45;70.41;98884.31;5028377;28;8847;-58
2022/09/14 09:11:10;;;;;;;;;4.00;3.60;;;;;16.42;70.64;98888.22;5027768;28;8867;-61
2022/09/14 09:13:39;;;;;;;;;3.60;3.60;;;;;16.40;71.24;98890.25;5027859;28;8833;-60
2022/09/14 09:16:06;;;;;;;;;4.00;4.00;;;;;16.40;71.28;98886.75;5027732;28;8840;-59
2022/09/14 09:18:34;;;;;;;;;2.20;2.20;;;;;16.40;70.91;98881.38;5029023;28;8833;-59
2022/09/14 09:21:02;;;;;;;;;1.00;1.00;;;;;16.38;71.05;98884.22;5029274;28;8828;-59
2022/09/14 09:23:31;;;;;;;;;1.80;1.40;;;;;16.36;71.20;98883.56;5028976;28;9553;-60
2022/09/14 09:25:59;;;;;;;;;4.20;3.80;;;;;16.36;70.70;98866.59;5030626;28;8836;-58
2022/09/14 09:28:28;;;;;;;;;3.00;3.00;;;;;16.34;71.48;98874.00;5028818;28;8849;-61
2022/09/14 09:30:56;;;;;;;;;2.60;2.60;;;;;16.28;71.44;98874.75;5026317;28;8825;-59
2022/09/14 09:33:23;;;;;;;;;3.00;2.20;;;;;16.23;71.39;98877.97;5027420;28;8875;-59
2022/09/14 09:35:51;;;;;;;;;1.40;1.00;;;;;16.21;71.13;98881.88;5026753;28;8848;-59
2022/09/14 09:38:23;;;;;;;;;3.00;3.00;;;;;16.19;71.33;98878.53;5027353;28;8837;-61
2022/09/14 09:40:51;;;;;;;;;1.40;1.40;;;;;16.13;71.33;98881.94;5026903;28;8881;-59
2022/09/14 09:43:18;;;;;;;;;1.00;1.00;;;;;16.09;71.85;98880.63;5026920;28;8913;-60
2022/09/14 09:46:06;;;;;;;;;3.00;1.00;;;;;16.08;71.73;98872.78;5027669;28;8852;-60
2022/09/14 09:48:34;;;;;;;;;1.00;1.00;;;;;16.09;71.29;98874.44;5028195;28;8979;-59
2022/09/14 09:51:02;;;;;;;;;3.00;1.00;;;;;16.09;72.14;98875.25;5027097;28;8916;-59
2022/09/14 09:53:30;;;;;;;;;3.00;3.00;;;;;16.10;71.58;98870.72;5025355;28;8853;-58
2022/09/14 09:55:57;;;;;;;;;0.00;0.00;;;;;16.08;71.93;98865.53;5025950;28;8840;-60
2022/09/14 09:58:25;;;;;;;;;3.80;3.00;;;;;16.07;71.74;98863.06;5028378;28;8844;-60
2022/09/14 10:00:52;;;;;;;;;1.00;1.00;;;;;16.05;71.51;98857.00;5028249;28;8836;-61
2022/09/14 10:03:21;;;;;;;;;0.20;0.20;;;;;16.07;71.98;98871.09;5028983;28;8845;-62
2022/09/14 10:05:49;;;;;;;;;1.00;1.00;;;;;16.07;71.56;98865.75;5028501;28;8859;-63
2022/09/14 10:08:18;;;;;;;;;1.40;1.40;;;;;16.06;72.00;98869.41;5027523;28;8825;-58
2022/09/14 10:10:46;;;;;;;;;2.20;2.20;;;;;16.03;71.90;98869.78;5027179;28;8860;-59
2022/09/14 10:13:13;;;;;;;;;0.00;0.00;;;;;16.02;71.74;98876.19;5026836;28;8855;-59
2022/09/14 10:15:42;;;;;;;;;3.80;3.80;;;;;15.99;71.52;98874.69;5027443;28;8866;-60
2022/09/14 10:18:09;;;;;;;;;0.60;0.60;;;;;16.01;71.53;98866.47;5028213;28;9552;-58
2022/09/14 10:20:37;;;;;;;;;3.00;2.60;;;;;16.03;72.11;98870.63;5027225;28;8837;-58
2022/09/14 10:23:05;;;;;;;;;1.00;1.00;;;;;16.02;71.62;98873.50;5027324;28;8856;-59
2022/09/14 10:25:34;;;;;;;;;2.60;1.00;;;;;16.00;71.82;98875.53;5025851;28;9119;-59
2022/09/14 10:28:01;;;;;;;;;1.40;1.40;;;;;16.02;71.59;98874.34;5025121;28;9166;-59
2022/09/14 10:30:29;;;;;;;;;3.80;3.80;;;;;16.02;71.67;98876.19;5024425;28;8856;-59
2022/09/14 10:32:58;;;;;;;;;3.00;3.00;;;;;16.01;71.95;98882.56;5025581;28;8841;-59
2022/09/14 10:35:25;;;;;;;;;1.00;1.00;;;;;16.00;72.06;98870.97;5024792;28;8837;-59
2022/09/14 10:37:53;;;;;;;;;1.40;1.00;;;;;16.02;72.22;98868.97;5026127;28;8844;-60
2022/09/14 10:40:21;;;;;;;;;1.00;1.00;;;;;16.07;71.90;98871.09;5025941;28;8877;-58
2022/09/14 10:42:50;;;;;;;;;1.00;1.00;;;;;16.06;71.61;98870.25;5026914;28;9529;-59
2022/09/14 10:45:17;;;;;;;;;3.40;2.20;;;;;16.04;71.77;98869.63;5026711;28;8824;-59
2022/09/14 10:47:45;;;;;;;;;3.00;3.00;;;;;16.02;71.93;98857.38;5026420;28;8921;-59
2022/09/14 10:50:14;;;;;;;;;7.00;4.00;;;;;16.04;71.81;98856.19;5025839;28;9568;-59
2022/09/14 10:52:42;;;;;;;;;1.80;1.00;;;;;16.09;71.55;98844.91;5026336;28;8861;-59
2022/09/14 10:55:09;;;;;;;;;1.00;1.00;;;;;16.14;71.46;98850.56;5025980;28;8848;-58
2022/09/14 10:57:37;;;;;;;;;2.20;2.20;;;;;16.14;71.89;98862.13;5026134;28;8828;-59
2022/09/14 11:00:06;;;;;;;;;1.00;1.00;;;;;16.13;71.64;98854.22;5026304;28;9210;-59
2022/09/14 11:02:34;;;;;;;;;3.00;3.00;;;;;16.13;72.22;98859.59;5027106;28;8866;-58
2022/09/14 11:05:02;;;;;;;;;3.00;1.80;;;;;16.12;71.79;98845.38;5045425;28;9513;-58
2022/09/14 11:07:30;;;;;;;;;0.00;0.00;;;;;16.13;71.60;98846.19;5046042;28;8849;-59
2022/09/14 11:09:58;;;;;;;;;3.00;1.00;;;;;16.12;71.74;98847.19;5045822;28;9750;-58
2022/09/14 11:12:25;;;;;;;;;1.00;1.00;;;;;16.07;71.72;98855.81;5045568;28;8842;-58
2022/09/14 11:14:53;;;;;;;;;2.20;2.20;;;;;16.05;71.76;98847.09;5044330;28;9527;-61
2022/09/14 11:17:21;;;;;;;;;1.00;1.00;;;;;16.05;71.81;98852.47;5044560;28;8838;-59
2022/09/14 11:19:48;;;;;;;;;1.80;1.00;;;;;16.03;72.08;98862.59;5045139;28;9205;-59
2022/09/14 11:22:16;;;;;;;;;2.20;2.20;;;;;16.01;71.94;98850.34;5038188;28;8821;-61
2022/09/14 11:24:44;;;;;;;;;0.00;0.00;;;;;16.02;72.05;98852.00;5025862;28;9220;-60
2022/09/14 11:27:14;;;;;;;;;1.00;0.00;;;;;16.03;72.53;98853.69;5024810;28;8841;-60
2022/09/14 11:29:43;;;;;;;;;0.60;0.60;;;;;16.04;72.50;98852.66;5024887;28;8861;-60
2022/09/14 11:32:11;;;;;;;;;0.00;0.00;;;;;16.07;72.40;98852.31;5025231;28;8867;-60
2022/09/14 11:34:55;;;;;;;;;1.00;1.00;;;;;16.08;72.17;98851.28;5025588;28;8841;-59
2022/09/14 11:37:22;;;;;;;;;1.40;1.40;;;;;16.13;72.33;98854.22;5025757;28;8852;-59
2022/09/14 11:39:50;;;;;;;;;0.00;0.00;;;;;16.15;71.72;98853.03;5026279;28;8828;-62
2022/09/14 11:42:18;;;;;;;;;1.00;1.00;;;;;16.19;72.03;98843.63;5026740;28;8837;-61
2022/09/14 11:44:46;;;;;;;;;1.00;1.00;;;;;16.23;72.11;98839.53;5026960;28;8847;-60